TAF Text Data
IDs:
Format:
Raw Decoded Include METAR

Data at: 0159 UTC 29 May 2022

KHSV 282333Z 2900/2924 VRB04KT P6SM FEW060
  FM291800 17007KT P6SM FEW250